sensor_id;sensor_type;location;lat;lon;timestamp;pressure;altitude;pressure_sealevel;temperature;humidity
60465;BME280;46314;52.392;9.758;2023-04-08T00:00:28;101514.06;;;7.74;70.28
60465;BME280;46314;52.392;9.758;2023-04-08T00:02:54;101509.88;;;7.71;71.21
60465;BME280;46314;52.392;9.758;2023-04-08T00:05:20;101515.50;;;7.82;70.86
60465;BME280;46314;52.392;9.758;2023-04-08T00:07:47;101517.16;;;7.28;71.31
60465;BME280;46314;52.392;9.758;2023-04-08T00:10:15;101517.16;;;7.28;71.65
60465;BME280;46314;52.392;9.758;2023-04-08T00:12:41;101516.91;;;7.08;72.38
60465;BME280;46314;52.392;9.758;2023-04-08T00:15:08;101514.56;;;7.44;71.59
60465;BME280;46314;52.392;9.758;2023-04-08T00:17:35;101518.22;;;7.49;71.46
60465;BME280;46314;52.392;9.758;2023-04-08T00:20:01;101514.72;;;7.59;71.15
60465;BME280;46314;52.392;9.758;2023-04-08T00:22:28;101513.81;;;7.26;71.59
60465;BME280;46314;52.392;9.758;2023-04-08T00:24:54;101520.13;;;7.49;70.94
60465;BME280;46314;52.392;9.758;2023-04-08T00:27:22;101519.53;;;7.69;70.99
60465;BME280;46314;52.392;9.758;2023-04-08T00:29:48;101529.09;;;7.34;71.54
60465;BME280;46314;52.392;9.758;2023-04-08T00:32:15;101525.69;;;7.27;71.99
60465;BME280;46314;52.392;9.758;2023-04-08T00:34:41;101533.78;;;7.88;69.72
60465;BME280;46314;52.392;9.758;2023-04-08T00:37:08;101525.44;;;7.55;71.00
60465;BME280;46314;52.392;9.758;2023-04-08T00:39:35;101527.22;;;7.67;69.82
60465;BME280;46314;52.392;9.758;2023-04-08T00:42:01;101524.97;;;7.91;68.85
60465;BME280;46314;52.392;9.758;2023-04-08T00:44:29;101532.47;;;8.28;67.84
60465;BME280;46314;52.392;9.758;2023-04-08T00:46:55;101530.25;;;8.30;67.57
60465;BME280;46314;52.392;9.758;2023-04-08T00:49:22;101523.00;;;8.19;67.37
60465;BME280;46314;52.392;9.758;2023-04-08T00:51:48;101527.50;;;8.30;67.33
60465;BME280;46314;52.392;9.758;2023-04-08T00:54:15;101516.81;;;8.81;65.59
60465;BME280;46314;52.392;9.758;2023-04-08T00:56:42;101521.22;;;8.40;66.82
60465;BME280;46314;52.392;9.758;2023-04-08T00:59:09;101525.81;;;7.64;69.15
60465;BME280;46314;52.392;9.758;2023-04-08T01:01:42;101524.13;;;7.63;70.25
60465;BME280;46314;52.392;9.758;2023-04-08T01:04:12;101525.16;;;8.11;67.94
60465;BME280;46314;52.392;9.758;2023-04-08T01:06:48;101523.44;;;8.38;67.41
60465;BME280;46314;52.392;9.758;2023-04-08T01:09:17;101519.59;;;8.81;65.53
60465;BME280;46314;52.392;9.758;2023-04-08T01:11:45;101518.00;;;8.96;64.90
60465;BME280;46314;52.392;9.758;2023-04-08T01:14:17;101512.94;;;8.82;65.29
60465;BME280;46314;52.392;9.758;2023-04-08T01:16:46;101521.84;;;8.95;64.93
60465;BME280;46314;52.392;9.758;2023-04-08T01:19:26;101519.88;;;8.42;67.62
60465;BME280;46314;52.392;9.758;2023-04-08T01:21:54;101526.38;;;8.63;66.68
60465;BME280;46314;52.392;9.758;2023-04-08T01:24:29;101520.81;;;8.21;68.96
60465;BME280;46314;52.392;9.758;2023-04-08T01:26:58;101530.03;;;7.45;71.44
60465;BME280;46314;52.392;9.758;2023-04-08T01:29:26;101523.47;;;7.78;70.64
60465;BME280;46314;52.392;9.758;2023-04-08T01:31:55;101517.78;;;7.90;71.00
60465;BME280;46314;52.392;9.758;2023-04-08T01:34:23;101522.00;;;7.70;71.25
60465;BME280;46314;52.392;9.758;2023-04-08T01:36:50;101528.41;;;7.49;72.00
60465;BME280;46314;52.392;9.758;2023-04-08T01:39:19;101521.78;;;7.00;74.41
60465;BME280;46314;52.392;9.758;2023-04-08T01:41:46;101526.34;;;7.61;72.28
60465;BME280;46314;52.392;9.758;2023-04-08T01:44:16;101518.94;;;7.39;72.82
60465;BME280;46314;52.392;9.758;2023-04-08T01:46:44;101526.69;;;7.43;72.97
60465;BME280;46314;52.392;9.758;2023-04-08T01:49:11;101522.53;;;8.27;69.79
60465;BME280;46314;52.392;9.758;2023-04-08T01:51:37;101523.28;;;8.55;68.09
60465;BME280;46314;52.392;9.758;2023-04-08T01:54:04;101506.13;;;8.15;69.59
60465;BME280;46314;52.392;9.758;2023-04-08T01:56:34;101508.09;;;8.57;67.73
60465;BME280;46314;52.392;9.758;2023-04-08T01:59:05;101499.16;;;8.93;66.49
60465;BME280;46314;52.392;9.758;2023-04-08T02:01:36;101506.06;;;8.95;66.00
60465;BME280;46314;52.392;9.758;2023-04-08T02:04:03;101493.41;;;9.04;65.27
60465;BME280;46314;52.392;9.758;2023-04-08T02:06:30;101491.81;;;9.24;64.96
60465;BME280;46314;52.392;9.758;2023-04-08T02:08:58;101502.06;;;9.23;65.13
60465;BME280;46314;52.392;9.758;2023-04-08T02:11:25;101504.72;;;8.98;65.40
60465;BME280;46314;52.392;9.758;2023-04-08T02:13:51;101515.75;;;8.87;65.83
60465;BME280;46314;52.392;9.758;2023-04-08T02:16:22;101515.75;;;8.93;65.45
60465;BME280;46314;52.392;9.758;2023-04-08T02:18:54;101505.59;;;9.08;65.83
60465;BME280;46314;52.392;9.758;2023-04-08T02:21:26;101506.34;;;8.88;65.69
60465;BME280;46314;52.392;9.758;2023-04-08T02:23:54;101513.63;;;9.10;65.04
60465;BME280;46314;52.392;9.758;2023-04-08T02:26:21;101510.53;;;8.96;65.28
60465;BME280;46314;52.392;9.758;2023-04-08T02:28:48;101512.50;;;9.06;65.77
60465;BME280;46314;52.392;9.758;2023-04-08T02:31:17;101506.91;;;8.90;65.30
60465;BME280;46314;52.392;9.758;2023-04-08T02:33:45;101514.69;;;8.94;65.64
60465;BME280;46314;52.392;9.758;2023-04-08T02:36:14;101521.84;;;8.95;66.04
60465;BME280;46314;52.392;9.758;2023-04-08T02:38:41;101505.25;;;8.95;65.22
60465;BME280;46314;52.392;9.758;2023-04-08T02:41:07;101512.28;;;8.65;66.05
60465;BME280;46314;52.392;9.758;2023-04-08T02:43:34;101516.41;;;9.15;64.59
60465;BME280;46314;52.392;9.758;2023-04-08T02:46:00;101522.34;;;8.86;65.75
60465;BME280;46314;52.392;9.758;2023-04-08T02:48:27;101521.06;;;8.99;65.14
60465;BME280;46314;52.392;9.758;2023-04-08T02:50:53;101524.69;;;9.05;64.59
60465;BME280;46314;52.392;9.758;2023-04-08T02:53:22;101517.56;;;9.24;64.58
60465;BME280;46314;52.392;9.758;2023-04-08T02:55:48;101525.13;;;8.81;65.50
60465;BME280;46314;52.392;9.758;2023-04-08T02:58:15;101525.34;;;9.33;64.86
60465;BME280;46314;52.392;9.758;2023-04-08T03:00:41;101523.34;;;8.27;68.21
60465;BME280;46314;52.392;9.758;2023-04-08T03:03:08;101529.97;;;9.12;65.83
60465;BME280;46314;52.392;9.758;2023-04-08T03:05:34;101526.06;;;8.22;67.89
60465;BME280;46314;52.392;9.758;2023-04-08T03:08:01;101532.84;;;8.79;66.51
60465;BME280;46314;52.392;9.758;2023-04-08T03:10:29;101527.84;;;8.76;66.82
60465;BME280;46314;52.392;9.758;2023-04-08T03:12:55;101533.75;;;8.90;66.19
60465;BME280;46314;52.392;9.758;2023-04-08T03:15:22;101527.44;;;8.20;68.79
60465;BME280;46314;52.392;9.758;2023-04-08T03:17:49;101541.44;;;8.83;66.87
60465;BME280;46314;52.392;9.758;2023-04-08T03:20:15;101536.84;;;9.04;66.06
60465;BME280;46314;52.392;9.758;2023-04-08T03:22:42;101533.69;;;8.80;66.46
60465;BME280;46314;52.392;9.758;2023-04-08T03:25:08;101536.59;;;8.58;67.02
60465;BME280;46314;52.392;9.758;2023-04-08T03:27:36;101539.34;;;9.05;65.43
60465;BME280;46314;52.392;9.758;2023-04-08T03:30:03;101535.00;;;8.72;67.29
60465;BME280;46314;52.392;9.758;2023-04-08T03:32:30;101542.88;;;8.90;66.83
60465;BME280;46314;52.392;9.758;2023-04-08T03:34:56;101535.66;;;8.89;66.21
60465;BME280;46314;52.392;9.758;2023-04-08T03:37:22;101543.22;;;7.92;71.04
60465;BME280;46314;52.392;9.758;2023-04-08T03:39:49;101544.78;;;8.85;67.49
60465;BME280;46314;52.392;9.758;2023-04-08T03:42:15;101547.81;;;8.83;67.23
60465;BME280;46314;52.392;9.758;2023-04-08T03:44:43;101546.34;;;9.18;65.77
60465;BME280;46314;52.392;9.758;2023-04-08T03:47:10;101544.97;;;8.73;67.66
60465;BME280;46314;52.392;9.758;2023-04-08T03:49:36;101545.09;;;8.88;66.97
60465;BME280;46314;52.392;9.758;2023-04-08T03:52:03;101552.06;;;9.01;66.66
60465;BME280;46314;52.392;9.758;2023-04-08T03:54:29;101541.78;;;8.17;69.78
60465;BME280;46314;52.392;9.758;2023-04-08T03:56:56;101544.94;;;8.68;68.44
60465;BME280;46314;52.392;9.758;2023-04-08T03:59:22;101548.19;;;9.07;67.13
60465;BME280;46314;52.392;9.758;2023-04-08T04:01:50;101546.06;;;8.72;68.17
60465;BME280;46314;52.392;9.758;2023-04-08T04:04:16;101546.72;;;8.89;67.50
60465;BME280;46314;52.392;9.758;2023-04-08T04:06:43;101554.06;;;9.21;66.80
60465;BME280;46314;52.392;9.758;2023-04-08T04:09:10;101552.91;;;9.07;66.88
60465;BME280;46314;52.392;9.758;2023-04-08T04:11:36;101548.63;;;9.42;66.05
60465;BME280;46314;52.392;9.758;2023-04-08T04:14:02;101548.81;;;9.25;66.66
60465;BME280;46314;52.392;9.758;2023-04-08T04:16:29;101551.66;;;8.82;68.23
60465;BME280;46314;52.392;9.758;2023-04-08T04:18:59;101563.34;;;8.95;68.25
60465;BME280;46314;52.392;9.758;2023-04-08T04:21:26;101561.41;;;8.90;69.08
60465;BME280;46314;52.392;9.758;2023-04-08T04:23:52;101570.03;;;9.04;68.51
60465;BME280;46314;52.392;9.758;2023-04-08T04:26:19;101558.75;;;8.30;71.93
60465;BME280;46314;52.392;9.758;2023-04-08T04:28:46;101567.13;;;8.08;73.60
60465;BME280;46314;52.392;9.758;2023-04-08T04:31:17;101565.94;;;7.72;74.96
60465;BME280;46314;52.392;9.758;2023-04-08T04:33:43;101575.44;;;8.78;71.58
60465;BME280;46314;52.392;9.758;2023-04-08T04:36:11;101568.97;;;8.62;70.68
60465;BME280;46314;52.392;9.758;2023-04-08T04:38:37;101569.13;;;8.45;71.20
60465;BME280;46314;52.392;9.758;2023-04-08T04:41:04;101579.31;;;7.58;76.10
60465;BME280;46314;52.392;9.758;2023-04-08T04:43:30;101572.75;;;8.19;73.15
60465;BME280;46314;52.392;9.758;2023-04-08T04:45:57;101582.97;;;7.42;77.78
60465;BME280;46314;52.392;9.758;2023-04-08T04:48:23;101588.38;;;7.81;76.92
60465;BME280;46314;52.392;9.758;2023-04-08T04:50:53;101586.97;;;8.32;74.13
60465;BME280;46314;52.392;9.758;2023-04-08T04:53:21;101582.59;;;8.74;71.96
60465;BME280;46314;52.392;9.758;2023-04-08T04:55:48;101587.53;;;8.34;73.71
60465;BME280;46314;52.392;9.758;2023-04-08T04:58:15;101598.09;;;8.75;72.03
60465;BME280;46314;52.392;9.758;2023-04-08T05:00:41;101592.53;;;8.38;74.44
60465;BME280;46314;52.392;9.758;2023-04-08T05:03:07;101593.22;;;8.93;71.71
60465;BME280;46314;52.392;9.758;2023-04-08T05:05:34;101593.13;;;9.25;70.88
60465;BME280;46314;52.392;9.758;2023-04-08T05:08:00;101599.44;;;9.10;70.07
60465;BME280;46314;52.392;9.758;2023-04-08T05:10:28;101605.63;;;7.44;77.78
60465;BME280;46314;52.392;9.758;2023-04-08T05:12:55;101609.44;;;7.37;79.62
60465;BME280;46314;52.392;9.758;2023-04-08T05:15:21;101609.66;;;7.14;80.56
60465;BME280;46314;52.392;9.758;2023-04-08T05:17:47;101609.38;;;7.32;81.40
60465;BME280;46314;52.392;9.758;2023-04-08T05:20:14;101612.28;;;7.43;80.19
60465;BME280;46314;52.392;9.758;2023-04-08T05:22:43;101616.88;;;7.59;80.40
60465;BME280;46314;52.392;9.758;2023-04-08T05:25:09;101619.13;;;7.40;81.09
60465;BME280;46314;52.392;9.758;2023-04-08T05:27:37;101614.00;;;6.71;83.57
60465;BME280;46314;52.392;9.758;2023-04-08T05:30:05;101617.94;;;7.14;83.34
60465;BME280;46314;52.392;9.758;2023-04-08T05:32:31;101624.19;;;7.26;80.99
60465;BME280;46314;52.392;9.758;2023-04-08T05:35:01;101616.59;;;7.38;80.94
60465;BME280;46314;52.392;9.758;2023-04-08T05:37:27;101614.34;;;8.07;77.30
60465;BME280;46314;52.392;9.758;2023-04-08T05:39:54;101609.75;;;7.41;79.44
60465;BME280;46314;52.392;9.758;2023-04-08T05:42:20;101602.44;;;7.74;78.34
60465;BME280;46314;52.392;9.758;2023-04-08T05:44:48;101617.44;;;7.83;78.56
60465;BME280;46314;52.392;9.758;2023-04-08T05:47:14;101620.69;;;8.02;77.85
60465;BME280;46314;52.392;9.758;2023-04-08T05:49:41;101613.50;;;7.79;78.25
60465;BME280;46314;52.392;9.758;2023-04-08T05:52:07;101626.44;;;6.90;81.53
60465;BME280;46314;52.392;9.758;2023-04-08T05:54:33;101623.25;;;6.98;82.87
60465;BME280;46314;52.392;9.758;2023-04-08T05:57:00;101623.94;;;7.50;81.15
60465;BME280;46314;52.392;9.758;2023-04-08T05:59:26;101629.59;;;7.38;80.74
60465;BME280;46314;52.392;9.758;2023-04-08T06:01:54;101634.84;;;7.39;79.27
60465;BME280;46314;52.392;9.758;2023-04-08T06:04:20;101630.09;;;7.57;80.47
60465;BME280;46314;52.392;9.758;2023-04-08T06:06:47;101633.28;;;8.47;76.66
60465;BME280;46314;52.392;9.758;2023-04-08T06:09:13;101640.56;;;8.59;74.26
60465;BME280;46314;52.392;9.758;2023-04-08T06:11:41;101646.59;;;8.88;73.08
60465;BME280;46314;52.392;9.758;2023-04-08T06:14:07;101648.72;;;7.45;78.58
60465;BME280;46314;52.392;9.758;2023-04-08T06:16:34;101640.22;;;6.90;82.70
60465;BME280;46314;52.392;9.758;2023-04-08T06:19:01;101648.38;;;7.19;81.44
60465;BME280;46314;52.392;9.758;2023-04-08T06:21:28;101655.75;;;6.96;82.51
60465;BME280;46314;52.392;9.758;2023-04-08T06:23:54;101656.84;;;8.01;79.26
60465;BME280;46314;52.392;9.758;2023-04-08T06:26:20;101663.34;;;7.23;81.25
60465;BME280;46314;52.392;9.758;2023-04-08T06:28:47;101662.84;;;7.48;80.18
60465;BME280;46314;52.392;9.758;2023-04-08T06:31:14;101667.75;;;7.24;82.77
60465;BME280;46314;52.392;9.758;2023-04-08T06:33:40;101661.22;;;7.30;81.96
60465;BME280;46314;52.392;9.758;2023-04-08T06:36:08;101664.59;;;7.76;79.56
60465;BME280;46314;52.392;9.758;2023-04-08T06:38:34;101661.00;;;8.03;78.05
60465;BME280;46314;52.392;9.758;2023-04-08T06:41:01;101675.00;;;7.69;79.66
60465;BME280;46314;52.392;9.758;2023-04-08T06:43:28;101671.03;;;8.64;76.59
60465;BME280;46314;52.392;9.758;2023-04-08T06:45:54;101667.38;;;8.90;73.33
60465;BME280;46314;52.392;9.758;2023-04-08T06:48:21;101680.34;;;9.27;71.94
60465;BME280;46314;52.392;9.758;2023-04-08T06:50:47;101681.41;;;7.53;78.30
60465;BME280;46314;52.392;9.758;2023-04-08T06:53:15;101678.88;;;8.45;75.33
60465;BME280;46314;52.392;9.758;2023-04-08T06:55:41;101678.06;;;8.49;73.86
60465;BME280;46314;52.392;9.758;2023-04-08T06:58:08;101685.94;;;8.95;73.13
60465;BME280;46314;52.392;9.758;2023-04-08T07:00:34;101686.28;;;8.39;76.22
60465;BME280;46314;52.392;9.758;2023-04-08T07:03:01;101684.31;;;8.12;76.79
60465;BME280;46314;52.392;9.758;2023-04-08T07:05:27;101688.44;;;7.88;77.65
60465;BME280;46314;52.392;9.758;2023-04-08T07:07:54;101691.09;;;7.55;78.64
60465;BME280;46314;52.392;9.758;2023-04-08T07:10:21;101693.53;;;7.52;80.18
60465;BME280;46314;52.392;9.758;2023-04-08T07:12:48;101694.31;;;7.69;78.71
60465;BME280;46314;52.392;9.758;2023-04-08T07:15:14;101691.34;;;7.54;80.57
60465;BME280;46314;52.392;9.758;2023-04-08T07:17:40;101690.09;;;7.62;80.42
60465;BME280;46314;52.392;9.758;2023-04-08T07:20:08;101690.78;;;9.15;73.87
60465;BME280;46314;52.392;9.758;2023-04-08T07:22:34;101693.34;;;8.30;76.68
60465;BME280;46314;52.392;9.758;2023-04-08T07:25:01;101701.94;;;8.33;76.64
60465;BME280;46314;52.392;9.758;2023-04-08T07:27:28;101703.78;;;8.23;76.55
60465;BME280;46314;52.392;9.758;2023-04-08T07:29:55;101703.63;;;8.57;76.62
60465;BME280;46314;52.392;9.758;2023-04-08T07:32:21;101698.97;;;8.40;75.73
60465;BME280;46314;52.392;9.758;2023-04-08T07:34:48;101701.03;;;9.20;73.63
60465;BME280;46314;52.392;9.758;2023-04-08T07:37:14;101704.00;;;8.70;74.90
60465;BME280;46314;52.392;9.758;2023-04-08T07:39:40;101701.66;;;8.89;74.91
60465;BME280;46314;52.392;9.758;2023-04-08T07:42:07;101705.72;;;8.44;74.68
60465;BME280;46314;52.392;9.758;2023-04-08T07:44:35;101697.84;;;8.63;75.29
60465;BME280;46314;52.392;9.758;2023-04-08T07:47:01;101705.47;;;8.24;76.80
60465;BME280;46314;52.392;9.758;2023-04-08T07:49:27;101706.25;;;9.06;73.97
60465;BME280;46314;52.392;9.758;2023-04-08T07:51:54;101702.13;;;8.22;75.89
60465;BME280;46314;52.392;9.758;2023-04-08T07:54:20;101713.81;;;8.83;74.42
60465;BME280;46314;52.392;9.758;2023-04-08T07:56:47;101704.50;;;9.42;71.57
60465;BME280;46314;52.392;9.758;2023-04-08T07:59:13;101711.22;;;9.46;71.72
60465;BME280;46314;52.392;9.758;2023-04-08T08:01:41;101717.03;;;10.08;68.75
60465;BME280;46314;52.392;9.758;2023-04-08T08:04:07;101720.41;;;10.26;68.15
60465;BME280;46314;52.392;9.758;2023-04-08T08:06:34;101719.41;;;9.31;71.01
60465;BME280;46314;52.392;9.758;2023-04-08T08:09:01;101720.13;;;9.59;71.85
60465;BME280;46314;52.392;9.758;2023-04-08T08:11:27;101730.63;;;9.14;71.73
60465;BME280;46314;52.392;9.758;2023-04-08T08:13:53;101726.88;;;8.93;74.14
60465;BME280;46314;52.392;9.758;2023-04-08T08:16:20;101737.41;;;8.64;74.77
60465;BME280;46314;52.392;9.758;2023-04-08T08:18:48;101742.94;;;9.81;70.27
60465;BME280;46314;52.392;9.758;2023-04-08T08:21:14;101737.09;;;9.30;72.17
60465;BME280;46314;52.392;9.758;2023-04-08T08:23:40;101740.22;;;8.69;74.49
60465;BME280;46314;52.392;9.758;2023-04-08T08:26:08;101738.38;;;9.12;74.04
60465;BME280;46314;52.392;9.758;2023-04-08T08:28:35;101742.47;;;9.95;69.89
60465;BME280;46314;52.392;9.758;2023-04-08T08:31:02;101744.31;;;10.42;67.91
60465;BME280;46314;52.392;9.758;2023-04-08T08:33:29;101744.09;;;9.85;69.89
60465;BME280;46314;52.392;9.758;2023-04-08T08:35:56;101752.34;;;10.33;67.64
60465;BME280;46314;52.392;9.758;2023-04-08T08:38:23;101753.59;;;9.52;69.91
60465;BME280;46314;52.392;9.758;2023-04-08T08:40:53;101757.72;;;9.50;72.22
60465;BME280;46314;52.392;9.758;2023-04-08T08:43:20;101759.34;;;8.76;73.71
60465;BME280;46314;52.392;9.758;2023-04-08T08:45:46;101756.50;;;9.30;72.61
60465;BME280;46314;52.392;9.758;2023-04-08T08:48:13;101765.13;;;10.45;68.16
60465;BME280;46314;52.392;9.758;2023-04-08T08:50:39;101758.97;;;10.32;67.74
60465;BME280;46314;52.392;9.758;2023-04-08T08:53:07;101762.06;;;10.41;67.50
60465;BME280;46314;52.392;9.758;2023-04-08T08:55:34;101766.44;;;9.26;71.40
60465;BME280;46314;52.392;9.758;2023-04-08T08:58:20;101769.25;;;10.32;68.02
60465;BME280;46314;52.392;9.758;2023-04-08T09:00:46;101766.53;;;10.52;67.24
60465;BME280;46314;52.392;9.758;2023-04-08T09:03:14;101776.28;;;10.65;66.29
60465;BME280;46314;52.392;9.758;2023-04-08T09:05:51;101771.25;;;10.57;66.70
60465;BME280;46314;52.392;9.758;2023-04-08T09:08:28;101774.06;;;10.83;65.91
60465;BME280;46314;52.392;9.758;2023-04-08T09:11:09;101783.72;;;10.49;68.08
60465;BME280;46314;52.392;9.758;2023-04-08T09:13:36;101775.16;;;10.61;66.63
60465;BME280;46314;52.392;9.758;2023-04-08T09:16:04;101783.53;;;10.92;65.96
60465;BME280;46314;52.392;9.758;2023-04-08T09:18:32;101785.28;;;10.24;68.31
60465;BME280;46314;52.392;9.758;2023-04-08T09:20:59;101789.09;;;11.02;65.74
60465;BME280;46314;52.392;9.758;2023-04-08T09:23:38;101787.47;;;8.95;73.30
60465;BME280;46314;52.392;9.758;2023-04-08T09:26:08;101786.19;;;8.26;77.71
60465;BME280;46314;52.392;9.758;2023-04-08T09:28:35;101782.47;;;8.91;75.83
60465;BME280;46314;52.392;9.758;2023-04-08T09:31:16;101790.53;;;9.68;72.79
60465;BME280;46314;52.392;9.758;2023-04-08T09:33:43;101795.53;;;10.24;69.49
60465;BME280;46314;52.392;9.758;2023-04-08T09:36:09;101799.03;;;10.67;68.34
60465;BME280;46314;52.392;9.758;2023-04-08T09:38:37;101797.56;;;8.79;74.88
60465;BME280;46314;52.392;9.758;2023-04-08T09:41:06;101802.50;;;8.27;77.32
60465;BME280;46314;52.392;9.758;2023-04-08T09:43:35;101805.94;;;8.57;77.63
60465;BME280;46314;52.392;9.758;2023-04-08T09:46:10;101805.41;;;8.87;76.50
60465;BME280;46314;52.392;9.758;2023-04-08T09:48:39;101793.94;;;9.38;74.08
60465;BME280;46314;52.392;9.758;2023-04-08T09:51:11;101799.81;;;9.46;73.29
60465;BME280;46314;52.392;9.758;2023-04-08T09:53:46;101807.72;;;10.23;70.60
60465;BME280;46314;52.392;9.758;2023-04-08T09:56:13;101805.47;;;11.04;67.70
60465;BME280;46314;52.392;9.758;2023-04-08T09:58:45;101803.78;;;10.82;67.23
60465;BME280;46314;52.392;9.758;2023-04-08T10:01:15;101806.75;;;9.97;69.43
60465;BME280;46314;52.392;9.758;2023-04-08T10:03:47;101807.78;;;9.38;72.73
60465;BME280;46314;52.392;9.758;2023-04-08T10:06:15;101811.16;;;9.88;71.23
60465;BME280;46314;52.392;9.758;2023-04-08T10:08:43;101814.84;;;10.72;67.52
60465;BME280;46314;52.392;9.758;2023-04-08T10:11:10;101805.88;;;9.06;74.57
60465;BME280;46314;52.392;9.758;2023-04-08T10:13:37;101821.53;;;8.68;76.12
60465;BME280;46314;52.392;9.758;2023-04-08T10:16:17;101816.09;;;9.05;74.94
60465;BME280;46314;52.392;9.758;2023-04-08T10:18:44;101812.44;;;9.00;75.67
60465;BME280;46314;52.392;9.758;2023-04-08T10:21:35;101804.16;;;9.37;74.24
60465;BME280;46314;52.392;9.758;2023-04-08T10:24:06;101804.81;;;9.92;72.41
60465;BME280;46314;52.392;9.758;2023-04-08T10:26:34;101815.69;;;10.72;68.68
60465;BME280;46314;52.392;9.758;2023-04-08T10:32:07;101814.69;;;9.78;71.75
60465;BME280;46314;52.392;9.758;2023-04-08T10:34:33;101816.88;;;9.33;73.65
60465;BME280;46314;52.392;9.758;2023-04-08T10:37:00;101814.66;;;9.68;73.45
60465;BME280;46314;52.392;9.758;2023-04-08T10:39:29;101812.88;;;10.57;69.66
60465;BME280;46314;52.392;9.758;2023-04-08T10:41:55;101810.88;;;10.42;69.56
60465;BME280;46314;52.392;9.758;2023-04-08T10:44:23;101817.94;;;10.91;66.91
60465;BME280;46314;52.392;9.758;2023-04-08T10:46:51;101809.00;;;10.00;70.82
60465;BME280;46314;52.392;9.758;2023-04-08T10:49:18;101813.63;;;10.37;69.75
60465;BME280;46314;52.392;9.758;2023-04-08T10:51:45;101810.69;;;10.79;67.70
60465;BME280;46314;52.392;9.758;2023-04-08T10:54:13;101809.28;;;10.61;68.42
60465;BME280;46314;52.392;9.758;2023-04-08T10:56:47;101817.41;;;10.89;67.39
60465;BME280;46314;52.392;9.758;2023-04-08T10:59:15;101811.53;;;10.70;67.53
60465;BME280;46314;52.392;9.758;2023-04-08T11:01:43;101805.91;;;9.91;70.89
60465;BME280;46314;52.392;9.758;2023-04-08T11:04:11;101820.50;;;9.39;72.39
60465;BME280;46314;52.392;9.758;2023-04-08T11:06:37;101813.94;;;9.88;72.40
60465;BME280;46314;52.392;9.758;2023-04-08T11:09:04;101823.66;;;10.43;70.91
60465;BME280;46314;52.392;9.758;2023-04-08T11:11:31;101818.16;;;9.20;74.95
60465;BME280;46314;52.392;9.758;2023-04-08T11:13:59;101820.97;;;9.63;73.33
60465;BME280;46314;52.392;9.758;2023-04-08T11:16:26;101823.66;;;9.95;71.07
60465;BME280;46314;52.392;9.758;2023-04-08T11:18:53;101820.13;;;10.68;68.46
60465;BME280;46314;52.392;9.758;2023-04-08T11:21:22;101823.31;;;9.44;73.15
60465;BME280;46314;52.392;9.758;2023-04-08T11:23:48;101821.41;;;9.87;72.31
60465;BME280;46314;52.392;9.758;2023-04-08T11:26:15;101828.47;;;10.78;68.73
60465;BME280;46314;52.392;9.758;2023-04-08T11:28:42;101824.56;;;10.11;70.36
60465;BME280;46314;52.392;9.758;2023-04-08T11:31:11;101823.84;;;9.78;72.00
60465;BME280;46314;52.392;9.758;2023-04-08T11:33:43;101828.72;;;9.61;72.47
60465;BME280;46314;52.392;9.758;2023-04-08T11:36:11;101828.78;;;9.34;74.17
60465;BME280;46314;52.392;9.758;2023-04-08T11:38:38;101829.22;;;10.53;70.54
60465;BME280;46314;52.392;9.758;2023-04-08T11:41:04;101827.13;;;10.96;68.17
60465;BME280;46314;52.392;9.758;2023-04-08T11:43:31;101829.34;;;11.15;67.38
60465;BME280;46314;52.392;9.758;2023-04-08T11:45:57;101827.81;;;10.46;70.01
60465;BME280;46314;52.392;9.758;2023-04-08T11:48:25;101832.75;;;9.43;74.33
60465;BME280;46314;52.392;9.758;2023-04-08T11:51:01;101840.63;;;9.24;74.98
60465;BME280;46314;52.392;9.758;2023-04-08T11:53:28;101841.94;;;8.89;77.08
60465;BME280;46314;52.392;9.758;2023-04-08T11:55:54;101846.41;;;8.95;77.21
60465;BME280;46314;52.392;9.758;2023-04-08T11:58:21;101843.28;;;9.46;75.47
60465;BME280;46314;52.392;9.758;2023-04-08T12:00:47;101843.84;;;9.16;75.99
60465;BME280;46314;52.392;9.758;2023-04-08T12:03:13;101847.78;;;8.43;78.91
60465;BME280;46314;52.392;9.758;2023-04-08T12:05:41;101841.84;;;9.76;75.25
60465;BME280;46314;52.392;9.758;2023-04-08T12:08:08;101851.34;;;9.90;73.08
60465;BME280;46314;52.392;9.758;2023-04-08T12:10:34;101843.28;;;9.46;74.61
60465;BME280;46314;52.392;9.758;2023-04-08T12:13:01;101843.25;;;10.26;71.19
60465;BME280;46314;52.392;9.758;2023-04-08T12:15:27;101844.78;;;10.59;69.87
60465;BME280;46314;52.392;9.758;2023-04-08T12:17:54;101849.03;;;10.88;68.52
60465;BME280;46314;52.392;9.758;2023-04-08T12:20:20;101844.66;;;11.23;66.74
60465;BME280;46314;52.392;9.758;2023-04-08T12:22:48;101849.06;;;11.03;66.91
60465;BME280;46314;52.392;9.758;2023-04-08T12:25:14;101849.22;;;10.50;69.13
60465;BME280;46314;52.392;9.758;2023-04-08T12:27:41;101841.00;;;11.02;67.44
60465;BME280;46314;52.392;9.758;2023-04-08T12:30:08;101845.44;;;10.87;68.78
60465;BME280;46314;52.392;9.758;2023-04-08T12:32:35;101848.00;;;10.36;69.49
60465;BME280;46314;52.392;9.758;2023-04-08T12:35:03;101845.81;;;9.53;73.01
60465;BME280;46314;52.392;9.758;2023-04-08T12:37:29;101846.28;;;9.39;73.84
60465;BME280;46314;52.392;9.758;2023-04-08T12:39:57;101846.66;;;9.48;75.01
60465;BME280;46314;52.392;9.758;2023-04-08T12:42:24;101850.81;;;10.41;70.59
60465;BME280;46314;52.392;9.758;2023-04-08T12:44:50;101848.22;;;10.24;71.45
60465;BME280;46314;52.392;9.758;2023-04-08T12:47:16;101852.97;;;9.81;73.84
60465;BME280;46314;52.392;9.758;2023-04-08T12:49:43;101847.81;;;9.57;72.88
60465;BME280;46314;52.392;9.758;2023-04-08T12:52:15;101839.88;;;10.97;69.38
60465;BME280;46314;52.392;9.758;2023-04-08T12:54:41;101843.81;;;11.22;67.08
60465;BME280;46314;52.392;9.758;2023-04-08T12:57:09;101843.69;;;10.71;67.90
60465;BME280;46314;52.392;9.758;2023-04-08T12:59:36;101838.25;;;9.75;72.77
60465;BME280;46314;52.392;9.758;2023-04-08T13:02:02;101844.06;;;9.79;72.55